sensor_id;sensor_type;location;lat;lon;timestamp;temperature;humidity
30308;DHT22;17114;52.314;8.910;2023-10-09T00:02:09;13.00;99.90
30308;DHT22;17114;52.314;8.910;2023-10-09T00:04:37;13.00;99.90
30308;DHT22;17114;52.314;8.910;2023-10-09T00:07:08;13.00;99.90
30308;DHT22;17114;52.314;8.910;2023-10-09T00:09:37;13.00;99.90
30308;DHT22;17114;52.314;8.910;2023-10-09T00:12:18;12.70;99.90
30308;DHT22;17114;52.314;8.910;2023-10-09T00:14:54;12.90;99.90
30308;DHT22;17114;52.314;8.910;2023-10-09T00:17:35;12.90;99.90
30308;DHT22;17114;52.314;8.910;2023-10-09T00:20:05;12.80;99.90
30308;DHT22;17114;52.314;8.910;2023-10-09T00:22:44;13.00;99.90
30308;DHT22;17114;52.314;8.910;2023-10-09T00:25:13;13.00;99.90
30308;DHT22;17114;52.314;8.910;2023-10-09T00:27:48;13.00;99.90
30308;DHT22;17114;52.314;8.910;2023-10-09T00:30:16;13.00;99.90
30308;DHT22;17114;52.314;8.910;2023-10-09T00:32:49;13.10;99.90
30308;DHT22;17114;52.314;8.910;2023-10-09T00:35:28;13.00;99.90
30308;DHT22;17114;52.314;8.910;2023-10-09T00:38:08;13.10;99.90
30308;DHT22;17114;52.314;8.910;2023-10-09T00:40:52;13.20;99.90
30308;DHT22;17114;52.314;8.910;2023-10-09T00:43:38;13.10;99.90
30308;DHT22;17114;52.314;8.910;2023-10-09T00:46:07;13.10;99.90
30308;DHT22;17114;52.314;8.910;2023-10-09T00:49:04;13.20;99.90
30308;DHT22;17114;52.314;8.910;2023-10-09T00:51:44;13.20;99.90
30308;DHT22;17114;52.314;8.910;2023-10-09T00:54:23;13.20;99.90
30308;DHT22;17114;52.314;8.910;2023-10-09T00:56:54;13.20;99.90
30308;DHT22;17114;52.314;8.910;2023-10-09T00:59:25;13.20;99.90
30308;DHT22;17114;52.314;8.910;2023-10-09T01:01:52;13.20;99.90
30308;DHT22;17114;52.314;8.910;2023-10-09T01:04:31;13.20;99.90
30308;DHT22;17114;52.314;8.910;2023-10-09T01:07:04;13.20;99.90
30308;DHT22;17114;52.314;8.910;2023-10-09T01:09:43;13.20;99.90
30308;DHT22;17114;52.314;8.910;2023-10-09T01:12:16;13.20;99.90
30308;DHT22;17114;52.314;8.910;2023-10-09T01:14:46;13.20;99.90
30308;DHT22;17114;52.314;8.910;2023-10-09T01:17:22;13.20;99.90
30308;DHT22;17114;52.314;8.910;2023-10-09T01:20:12;13.10;99.90
30308;DHT22;17114;52.314;8.910;2023-10-09T01:22:43;13.10;99.90
30308;DHT22;17114;52.314;8.910;2023-10-09T01:25:10;13.00;99.90
30308;DHT22;17114;52.314;8.910;2023-10-09T01:27:37;13.00;99.90
30308;DHT22;17114;52.314;8.910;2023-10-09T01:30:07;13.00;99.90
30308;DHT22;17114;52.314;8.910;2023-10-09T01:32:40;13.10;99.90
30308;DHT22;17114;52.314;8.910;2023-10-09T01:35:07;13.20;99.90
30308;DHT22;17114;52.314;8.910;2023-10-09T01:37:50;13.00;99.90
30308;DHT22;17114;52.314;8.910;2023-10-09T01:40:18;13.00;99.90
30308;DHT22;17114;52.314;8.910;2023-10-09T01:43:02;13.00;99.90
30308;DHT22;17114;52.314;8.910;2023-10-09T01:45:30;13.10;99.90
30308;DHT22;17114;52.314;8.910;2023-10-09T01:48:09;13.10;99.90
30308;DHT22;17114;52.314;8.910;2023-10-09T01:50:37;13.10;99.90
30308;DHT22;17114;52.314;8.910;2023-10-09T01:53:08;13.30;99.90
30308;DHT22;17114;52.314;8.910;2023-10-09T01:55:36;13.10;99.90
30308;DHT22;17114;52.314;8.910;2023-10-09T01:58:12;13.00;99.90
30308;DHT22;17114;52.314;8.910;2023-10-09T02:00:48;13.20;99.90
30308;DHT22;17114;52.314;8.910;2023-10-09T02:03:20;13.00;99.90
30308;DHT22;17114;52.314;8.910;2023-10-09T02:05:52;13.10;99.90
30308;DHT22;17114;52.314;8.910;2023-10-09T02:08:26;13.20;99.90
30308;DHT22;17114;52.314;8.910;2023-10-09T02:11:02;13.10;99.90
30308;DHT22;17114;52.314;8.910;2023-10-09T02:13:30;13.10;99.90
30308;DHT22;17114;52.314;8.910;2023-10-09T02:15:58;13.10;99.90
30308;DHT22;17114;52.314;8.910;2023-10-09T02:18:40;13.20;99.90
30308;DHT22;17114;52.314;8.910;2023-10-09T02:21:19;13.10;99.90
30308;DHT22;17114;52.314;8.910;2023-10-09T02:24:07;13.10;99.90
30308;DHT22;17114;52.314;8.910;2023-10-09T02:26:53;13.20;99.90
30308;DHT22;17114;52.314;8.910;2023-10-09T02:29:20;13.20;99.90
30308;DHT22;17114;52.314;8.910;2023-10-09T02:31:50;13.40;99.90
30308;DHT22;17114;52.314;8.910;2023-10-09T02:34:27;13.30;99.90
30308;DHT22;17114;52.314;8.910;2023-10-09T02:36:55;13.40;99.90
30308;DHT22;17114;52.314;8.910;2023-10-09T02:39:25;13.30;99.90
30308;DHT22;17114;52.314;8.910;2023-10-09T02:41:56;13.50;99.90
30308;DHT22;17114;52.314;8.910;2023-10-09T02:44:42;13.60;99.90
30308;DHT22;17114;52.314;8.910;2023-10-09T02:47:17;13.70;99.90
30308;DHT22;17114;52.314;8.910;2023-10-09T02:49:48;13.70;99.90
30308;DHT22;17114;52.314;8.910;2023-10-09T02:52:15;13.80;99.90
30308;DHT22;17114;52.314;8.910;2023-10-09T02:54:46;13.70;99.90
30308;DHT22;17114;52.314;8.910;2023-10-09T02:57:19;13.80;99.90
30308;DHT22;17114;52.314;8.910;2023-10-09T02:59:50;13.80;99.90
30308;DHT22;17114;52.314;8.910;2023-10-09T03:02:18;13.80;99.90
30308;DHT22;17114;52.314;8.910;2023-10-09T03:04:46;13.80;99.90
30308;DHT22;17114;52.314;8.910;2023-10-09T03:07:13;13.90;99.90
30308;DHT22;17114;52.314;8.910;2023-10-09T03:09:40;13.80;99.90
30308;DHT22;17114;52.314;8.910;2023-10-09T03:12:07;13.90;99.90
30308;DHT22;17114;52.314;8.910;2023-10-09T03:14:40;13.70;99.90
30308;DHT22;17114;52.314;8.910;2023-10-09T03:17:08;13.70;99.90
30308;DHT22;17114;52.314;8.910;2023-10-09T03:19:39;13.70;99.90
30308;DHT22;17114;52.314;8.910;2023-10-09T03:22:07;13.70;99.90
30308;DHT22;17114;52.314;8.910;2023-10-09T03:24:41;13.70;99.90
30308;DHT22;17114;52.314;8.910;2023-10-09T03:27:17;13.70;99.90
30308;DHT22;17114;52.314;8.910;2023-10-09T03:29:45;13.70;99.90
30308;DHT22;17114;52.314;8.910;2023-10-09T03:32:16;13.70;99.90
30308;DHT22;17114;52.314;8.910;2023-10-09T03:34:43;13.70;99.90
30308;DHT22;17114;52.314;8.910;2023-10-09T03:37:11;13.70;99.90
30308;DHT22;17114;52.314;8.910;2023-10-09T03:39:49;13.70;99.90
30308;DHT22;17114;52.314;8.910;2023-10-09T03:42:22;13.60;99.90
30308;DHT22;17114;52.314;8.910;2023-10-09T03:44:49;13.70;99.90
30308;DHT22;17114;52.314;8.910;2023-10-09T03:47:20;13.60;99.90
30308;DHT22;17114;52.314;8.910;2023-10-09T03:49:50;13.70;99.90
30308;DHT22;17114;52.314;8.910;2023-10-09T03:52:20;13.80;99.90
30308;DHT22;17114;52.314;8.910;2023-10-09T03:54:52;13.90;99.90
30308;DHT22;17114;52.314;8.910;2023-10-09T03:57:19;13.70;99.90
30308;DHT22;17114;52.314;8.910;2023-10-09T03:59:46;13.80;99.90
30308;DHT22;17114;52.314;8.910;2023-10-09T04:02:16;13.80;99.90
30308;DHT22;17114;52.314;8.910;2023-10-09T04:04:43;13.80;99.90
30308;DHT22;17114;52.314;8.910;2023-10-09T04:07:15;13.80;99.90
30308;DHT22;17114;52.314;8.910;2023-10-09T04:09:45;13.90;99.90
30308;DHT22;17114;52.314;8.910;2023-10-09T04:12:15;13.80;99.90
30308;DHT22;17114;52.314;8.910;2023-10-09T04:14:52;13.70;99.90
30308;DHT22;17114;52.314;8.910;2023-10-09T04:17:24;13.70;99.90
30308;DHT22;17114;52.314;8.910;2023-10-09T04:19:51;13.80;99.90
30308;DHT22;17114;52.314;8.910;2023-10-09T04:22:41;13.70;99.90
30308;DHT22;17114;52.314;8.910;2023-10-09T04:25:18;13.80;99.90
30308;DHT22;17114;52.314;8.910;2023-10-09T04:27:57;13.90;99.90
30308;DHT22;17114;52.314;8.910;2023-10-09T04:30:39;13.70;99.90
30308;DHT22;17114;52.314;8.910;2023-10-09T04:33:07;13.70;99.90
30308;DHT22;17114;52.314;8.910;2023-10-09T04:36:03;13.90;99.90
30308;DHT22;17114;52.314;8.910;2023-10-09T04:38:48;13.70;99.90
30308;DHT22;17114;52.314;8.910;2023-10-09T04:41:32;13.70;99.90
30308;DHT22;17114;52.314;8.910;2023-10-09T04:44:19;13.70;99.90
30308;DHT22;17114;52.314;8.910;2023-10-09T04:46:50;13.70;99.90
30308;DHT22;17114;52.314;8.910;2023-10-09T04:49:40;13.70;99.90
30308;DHT22;17114;52.314;8.910;2023-10-09T04:52:29;13.70;99.90
30308;DHT22;17114;52.314;8.910;2023-10-09T04:54:59;13.70;99.90
30308;DHT22;17114;52.314;8.910;2023-10-09T04:57:43;13.80;99.90
30308;DHT22;17114;52.314;8.910;2023-10-09T05:00:15;13.80;99.90
30308;DHT22;17114;52.314;8.910;2023-10-09T05:02:59;13.70;99.90
30308;DHT22;17114;52.314;8.910;2023-10-09T05:05:34;13.60;99.90
30308;DHT22;17114;52.314;8.910;2023-10-09T05:08:13;13.70;99.90
30308;DHT22;17114;52.314;8.910;2023-10-09T05:11:02;13.70;99.90
30308;DHT22;17114;52.314;8.910;2023-10-09T05:13:34;13.60;99.90
30308;DHT22;17114;52.314;8.910;2023-10-09T05:18:47;13.70;99.90
30308;DHT22;17114;52.314;8.910;2023-10-09T05:21:38;13.70;99.90
30308;DHT22;17114;52.314;8.910;2023-10-09T05:24:08;13.70;99.90
30308;DHT22;17114;52.314;8.910;2023-10-09T05:26:49;13.80;99.90
30308;DHT22;17114;52.314;8.910;2023-10-09T05:29:23;13.70;99.90
30308;DHT22;17114;52.314;8.910;2023-10-09T05:32:06;13.70;99.90
30308;DHT22;17114;52.314;8.910;2023-10-09T05:34:54;13.70;99.90
30308;DHT22;17114;52.314;8.910;2023-10-09T05:37:32;13.70;99.90
30308;DHT22;17114;52.314;8.910;2023-10-09T05:40:02;13.70;99.90
30308;DHT22;17114;52.314;8.910;2023-10-09T05:42:35;13.70;99.90
30308;DHT22;17114;52.314;8.910;2023-10-09T05:45:10;13.70;99.90
30308;DHT22;17114;52.314;8.910;2023-10-09T05:47:44;13.70;99.90
30308;DHT22;17114;52.314;8.910;2023-10-09T05:50:32;13.70;99.90
30308;DHT22;17114;52.314;8.910;2023-10-09T05:53:04;13.80;99.90
30308;DHT22;17114;52.314;8.910;2023-10-09T05:55:54;13.80;99.90
30308;DHT22;17114;52.314;8.910;2023-10-09T05:58:39;13.90;99.90
30308;DHT22;17114;52.314;8.910;2023-10-09T06:01:24;13.90;99.90
30308;DHT22;17114;52.314;8.910;2023-10-09T06:04:09;14.00;99.90
30308;DHT22;17114;52.314;8.910;2023-10-09T06:06:43;13.90;99.90
30308;DHT22;17114;52.314;8.910;2023-10-09T06:09:22;13.90;99.90
30308;DHT22;17114;52.314;8.910;2023-10-09T06:11:50;13.90;99.90
30308;DHT22;17114;52.314;8.910;2023-10-09T06:14:23;14.00;99.90
30308;DHT22;17114;52.314;8.910;2023-10-09T06:16:57;14.00;99.90
30308;DHT22;17114;52.314;8.910;2023-10-09T06:19:24;14.10;99.90
30308;DHT22;17114;52.314;8.910;2023-10-09T06:21:56;14.00;99.90
30308;DHT22;17114;52.314;8.910;2023-10-09T06:24:39;14.00;99.90
30308;DHT22;17114;52.314;8.910;2023-10-09T06:27:10;14.10;99.90
30308;DHT22;17114;52.314;8.910;2023-10-09T06:29:38;14.10;99.90
30308;DHT22;17114;52.314;8.910;2023-10-09T06:32:18;14.10;99.90
30308;DHT22;17114;52.314;8.910;2023-10-09T06:35:06;14.00;99.90
30308;DHT22;17114;52.314;8.910;2023-10-09T06:37:44;14.10;99.90
30308;DHT22;17114;52.314;8.910;2023-10-09T06:40:32;14.20;99.90
30308;DHT22;17114;52.314;8.910;2023-10-09T06:43:22;14.20;99.90
30308;DHT22;17114;52.314;8.910;2023-10-09T06:45:50;14.30;99.90
30308;DHT22;17114;52.314;8.910;2023-10-09T06:48:35;14.20;99.90
30308;DHT22;17114;52.314;8.910;2023-10-09T06:51:09;14.20;99.90
30308;DHT22;17114;52.314;8.910;2023-10-09T06:53:56;14.20;99.90
30308;DHT22;17114;52.314;8.910;2023-10-09T06:56:31;14.20;99.90
30308;DHT22;17114;52.314;8.910;2023-10-09T06:59:00;14.20;99.90
30308;DHT22;17114;52.314;8.910;2023-10-09T07:01:48;14.20;99.90
30308;DHT22;17114;52.314;8.910;2023-10-09T07:04:35;14.30;99.90
30308;DHT22;17114;52.314;8.910;2023-10-09T07:07:03;14.30;99.90
30308;DHT22;17114;52.314;8.910;2023-10-09T07:09:36;14.30;99.90
30308;DHT22;17114;52.314;8.910;2023-10-09T07:12:10;14.40;99.90
30308;DHT22;17114;52.314;8.910;2023-10-09T07:14:41;14.40;99.90
30308;DHT22;17114;52.314;8.910;2023-10-09T07:17:28;14.40;99.90
30308;DHT22;17114;52.314;8.910;2023-10-09T07:20:00;14.50;99.90
30308;DHT22;17114;52.314;8.910;2023-10-09T07:22:40;14.40;99.90
30308;DHT22;17114;52.314;8.910;2023-10-09T07:25:20;14.40;99.90
30308;DHT22;17114;52.314;8.910;2023-10-09T07:28:09;14.40;99.90
30308;DHT22;17114;52.314;8.910;2023-10-09T07:30:56;14.40;99.90
30308;DHT22;17114;52.314;8.910;2023-10-09T07:33:24;14.40;99.90
30308;DHT22;17114;52.314;8.910;2023-10-09T07:36:03;14.20;99.90
30308;DHT22;17114;52.314;8.910;2023-10-09T07:38:34;14.40;99.90
30308;DHT22;17114;52.314;8.910;2023-10-09T07:41:04;14.40;99.90
30308;DHT22;17114;52.314;8.910;2023-10-09T07:43:35;14.40;99.90
30308;DHT22;17114;52.314;8.910;2023-10-09T07:46:06;14.40;99.90
30308;DHT22;17114;52.314;8.910;2023-10-09T07:48:52;14.30;99.90
30308;DHT22;17114;52.314;8.910;2023-10-09T07:51:19;14.40;99.90
30308;DHT22;17114;52.314;8.910;2023-10-09T07:53:50;14.40;99.90
30308;DHT22;17114;52.314;8.910;2023-10-09T07:56:24;14.40;99.90
30308;DHT22;17114;52.314;8.910;2023-10-09T07:58:51;14.50;99.90
30308;DHT22;17114;52.314;8.910;2023-10-09T08:01:18;14.50;99.90
30308;DHT22;17114;52.314;8.910;2023-10-09T08:04:04;14.50;99.90
30308;DHT22;17114;52.314;8.910;2023-10-09T08:06:47;14.50;99.90
30308;DHT22;17114;52.314;8.910;2023-10-09T08:09:34;14.60;99.90
30308;DHT22;17114;52.314;8.910;2023-10-09T08:12:15;14.60;99.90
30308;DHT22;17114;52.314;8.910;2023-10-09T08:15:03;14.60;99.90
30308;DHT22;17114;52.314;8.910;2023-10-09T08:17:50;14.70;99.90
30308;DHT22;17114;52.314;8.910;2023-10-09T08:20:28;14.80;99.90
30308;DHT22;17114;52.314;8.910;2023-10-09T08:23:03;14.80;99.90
30308;DHT22;17114;52.314;8.910;2023-10-09T08:25:31;14.80;99.90
30308;DHT22;17114;52.314;8.910;2023-10-09T08:28:00;14.70;99.90
30308;DHT22;17114;52.314;8.910;2023-10-09T08:30:51;14.90;99.90
30308;DHT22;17114;52.314;8.910;2023-10-09T08:33:21;14.90;99.90
30308;DHT22;17114;52.314;8.910;2023-10-09T08:35:56;14.90;99.90
30308;DHT22;17114;52.314;8.910;2023-10-09T08:38:32;14.90;99.90
30308;DHT22;17114;52.314;8.910;2023-10-09T08:41:10;14.90;99.90
30308;DHT22;17114;52.314;8.910;2023-10-09T08:43:49;15.00;99.90
30308;DHT22;17114;52.314;8.910;2023-10-09T08:48:50;15.00;99.90
30308;DHT22;17114;52.314;8.910;2023-10-09T08:51:17;15.10;99.90
30308;DHT22;17114;52.314;8.910;2023-10-09T08:53:46;15.10;99.90
30308;DHT22;17114;52.314;8.910;2023-10-09T08:56:15;15.10;99.90
30308;DHT22;17114;52.314;8.910;2023-10-09T08:58:53;15.10;99.90
30308;DHT22;17114;52.314;8.910;2023-10-09T09:01:21;15.20;99.90
30308;DHT22;17114;52.314;8.910;2023-10-09T09:03:49;15.20;99.90
30308;DHT22;17114;52.314;8.910;2023-10-09T09:06:20;15.20;99.90
30308;DHT22;17114;52.314;8.910;2023-10-09T09:08:47;15.20;99.90
30308;DHT22;17114;52.314;8.910;2023-10-09T09:11:16;15.20;99.90
30308;DHT22;17114;52.314;8.910;2023-10-09T09:13:46;15.20;99.90
30308;DHT22;17114;52.314;8.910;2023-10-09T09:19:13;15.20;99.90
30308;DHT22;17114;52.314;8.910;2023-10-09T09:21:56;15.20;99.90
30308;DHT22;17114;52.314;8.910;2023-10-09T09:24:37;15.10;99.90
30308;DHT22;17114;52.314;8.910;2023-10-09T09:27:05;15.10;99.90
30308;DHT22;17114;52.314;8.910;2023-10-09T09:29:47;15.10;99.90
30308;DHT22;17114;52.314;8.910;2023-10-09T09:32:28;15.10;99.90
30308;DHT22;17114;52.314;8.910;2023-10-09T09:35:03;15.10;99.90
30308;DHT22;17114;52.314;8.910;2023-10-09T09:37:33;15.10;99.90
30308;DHT22;17114;52.314;8.910;2023-10-09T09:40:09;15.10;99.90
30308;DHT22;17114;52.314;8.910;2023-10-09T09:43:01;15.20;99.90
30308;DHT22;17114;52.314;8.910;2023-10-09T09:45:36;15.20;99.90
30308;DHT22;17114;52.314;8.910;2023-10-09T09:48:05;15.20;99.90
30308;DHT22;17114;52.314;8.910;2023-10-09T09:50:33;15.20;99.90
30308;DHT22;17114;52.314;8.910;2023-10-09T09:53:04;15.30;99.90
30308;DHT22;17114;52.314;8.910;2023-10-09T09:55:38;15.40;99.90
30308;DHT22;17114;52.314;8.910;2023-10-09T09:58:13;15.50;99.90
30308;DHT22;17114;52.314;8.910;2023-10-09T10:00:46;15.50;99.90
30308;DHT22;17114;52.314;8.910;2023-10-09T10:03:32;15.60;99.90
30308;DHT22;17114;52.314;8.910;2023-10-09T10:06:04;15.60;99.90
30308;DHT22;17114;52.314;8.910;2023-10-09T10:08:36;15.60;99.90
30308;DHT22;17114;52.314;8.910;2023-10-09T10:11:07;15.60;99.90
30308;DHT22;17114;52.314;8.910;2023-10-09T10:16:09;15.70;99.90
30308;DHT22;17114;52.314;8.910;2023-10-09T10:21:38;15.70;99.90
30308;DHT22;17114;52.314;8.910;2023-10-09T10:27:17;15.70;99.90
30308;DHT22;17114;52.314;8.910;2023-10-09T10:33:00;16.00;99.90
30308;DHT22;17114;52.314;8.910;2023-10-09T10:35:49;16.10;99.90
30308;DHT22;17114;52.314;8.910;2023-10-09T10:38:27;16.10;99.90
30308;DHT22;17114;52.314;8.910;2023-10-09T10:41:14;16.10;99.90
30308;DHT22;17114;52.314;8.910;2023-10-09T10:43:45;16.10;99.90
30308;DHT22;17114;52.314;8.910;2023-10-09T10:46:23;16.00;99.90
30308;DHT22;17114;52.314;8.910;2023-10-09T10:48:52;15.90;99.90
30308;DHT22;17114;52.314;8.910;2023-10-09T10:51:35;15.80;99.90
30308;DHT22;17114;52.314;8.910;2023-10-09T10:54:06;15.80;99.90
30308;DHT22;17114;52.314;8.910;2023-10-09T10:56:51;15.80;99.90
30308;DHT22;17114;52.314;8.910;2023-10-09T10:59:19;15.80;99.90
30308;DHT22;17114;52.314;8.910;2023-10-09T11:01:56;15.70;99.90
30308;DHT22;17114;52.314;8.910;2023-10-09T11:04:29;15.70;99.90
30308;DHT22;17114;52.314;8.910;2023-10-09T11:06:58;15.70;99.90
30308;DHT22;17114;52.314;8.910;2023-10-09T11:12:26;15.70;99.90
30308;DHT22;17114;52.314;8.910;2023-10-09T11:15:06;15.60;99.90
30308;DHT22;17114;52.314;8.910;2023-10-09T11:17:37;15.60;99.90
30308;DHT22;17114;52.314;8.910;2023-10-09T11:20:07;15.60;99.90
30308;DHT22;17114;52.314;8.910;2023-10-09T11:22:52;15.60;99.90
30308;DHT22;17114;52.314;8.910;2023-10-09T11:25:47;15.60;99.90
30308;DHT22;17114;52.314;8.910;2023-10-09T11:28:18;15.60;99.90
30308;DHT22;17114;52.314;8.910;2023-10-09T11:31:08;15.60;99.90
30308;DHT22;17114;52.314;8.910;2023-10-09T11:33:49;15.70;99.90
30308;DHT22;17114;52.314;8.910;2023-10-09T11:36:19;15.80;99.90
30308;DHT22;17114;52.314;8.910;2023-10-09T11:38:59;15.80;99.90
30308;DHT22;17114;52.314;8.910;2023-10-09T11:41:40;15.80;99.90
30308;DHT22;17114;52.314;8.910;2023-10-09T11:44:11;15.90;99.90
30308;DHT22;17114;52.314;8.910;2023-10-09T11:47:00;15.90;99.90
30308;DHT22;17114;52.314;8.910;2023-10-09T11:49:50;15.90;99.90
30308;DHT22;17114;52.314;8.910;2023-10-09T11:52:32;16.00;99.90
30308;DHT22;17114;52.314;8.910;2023-10-09T11:55:03;16.00;99.90
30308;DHT22;17114;52.314;8.910;2023-10-09T11:57:33;16.00;99.90
30308;DHT22;17114;52.314;8.910;2023-10-09T12:00:03;16.00;99.90
30308;DHT22;17114;52.314;8.910;2023-10-09T12:03:03;16.10;99.90
30308;DHT22;17114;52.314;8.910;2023-10-09T12:05:32;16.20;99.90
30308;DHT22;17114;52.314;8.910;2023-10-09T12:08:01;16.20;99.90
30308;DHT22;17114;52.314;8.910;2023-10-09T12:10:28;16.20;99.90
30308;DHT22;17114;52.314;8.910;2023-10-09T12:12:56;16.20;99.90
30308;DHT22;17114;52.314;8.910;2023-10-09T12:15:26;16.20;99.90
30308;DHT22;17114;52.314;8.910;2023-10-09T12:18:07;16.20;99.90
30308;DHT22;17114;52.314;8.910;2023-10-09T12:20:38;16.20;99.90
30308;DHT22;17114;52.314;8.910;2023-10-09T12:23:05;16.20;99.90
30308;DHT22;17114;52.314;8.910;2023-10-09T12:25:33;16.20;99.90
30308;DHT22;17114;52.314;8.910;2023-10-09T12:28:02;16.20;99.90
30308;DHT22;17114;52.314;8.910;2023-10-09T12:30:29;16.20;99.90
30308;DHT22;17114;52.314;8.910;2023-10-09T12:32:57;16.20;99.90
30308;DHT22;17114;52.314;8.910;2023-10-09T12:35:25;16.20;99.90
30308;DHT22;17114;52.314;8.910;2023-10-09T12:37:53;16.20;99.90
30308;DHT22;17114;52.314;8.910;2023-10-09T12:40:22;16.40;99.90
30308;DHT22;17114;52.314;8.910;2023-10-09T12:42:56;16.40;99.90
30308;DHT22;17114;52.314;8.910;2023-10-09T12:45:26;16.40;99.90
30308;DHT22;17114;52.314;8.910;2023-10-09T12:47:54;16.40;99.90
30308;DHT22;17114;52.314;8.910;2023-10-09T12:50:26;16.40;99.90
30308;DHT22;17114;52.314;8.910;2023-10-09T12:53:00;16.40;99.90
30308;DHT22;17114;52.314;8.910;2023-10-09T12:55:37;16.50;99.90
30308;DHT22;17114;52.314;8.910;2023-10-09T12:58:08;16.60;99.90
30308;DHT22;17114;52.314;8.910;2023-10-09T13:00:39;16.60;99.90
30308;DHT22;17114;52.314;8.910;2023-10-09T13:03:16;16.60;99.90
30308;DHT22;17114;52.314;8.910;2023-10-09T13:05:52;16.70;99.90
30308;DHT22;17114;52.314;8.910;2023-10-09T13:10:51;16.70;99.90
30308;DHT22;17114;52.314;8.910;2023-10-09T13:13:29;16.70;99.90
30308;DHT22;17114;52.314;8.910;2023-10-09T13:16:18;16.70;99.90
30308;DHT22;17114;52.314;8.910;2023-10-09T13:18:57;16.70;99.90
30308;DHT22;17114;52.314;8.910;2023-10-09T13:21:26;16.80;99.90
30308;DHT22;17114;52.314;8.910;2023-10-09T13:23:58;16.70;99.90
30308;DHT22;17114;52.314;8.910;2023-10-09T13:26:27;16.70;99.90
30308;DHT22;17114;52.314;8.910;2023-10-09T13:29:01;16.80;99.90
30308;DHT22;17114;52.314;8.910;2023-10-09T13:31:30;16.80;99.90
30308;DHT22;17114;52.314;8.910;2023-10-09T13:34:01;16.80;99.90
30308;DHT22;17114;52.314;8.910;2023-10-09T13:36:33;16.90;99.90
30308;DHT22;17114;52.314;8.910;2023-10-09T13:39:02;16.80;99.90
30308;DHT22;17114;52.314;8.910;2023-10-09T13:41:47;16.80;99.90
30308;DHT22;17114;52.314;8.910;2023-10-09T13:44:14;16.80;99.90
30308;DHT22;17114;52.314;8.910;2023-10-09T13:46:42;16.80;99.90
30308;DHT22;17114;52.314;8.910;2023-10-09T13:49:10;16.90;99.90
30308;DHT22;17114;52.314;8.910;2023-10-09T13:51:41;16.80;99.90
30308;DHT22;17114;52.314;8.910;2023-10-09T13:54:12;16.90;99.90
30308;DHT22;17114;52.314;8.910;2023-10-09T13:56:48;17.00;99.90
30308;DHT22;17114;52.314;8.910;2023-10-09T13:59:23;17.00;99.90
30308;DHT22;17114;52.314;8.910;2023-10-09T14:01:53;17.10;99.90
30308;DHT22;17114;52.314;8.910;2023-10-09T14:04:24;17.10;99.90
30308;DHT22;17114;52.314;8.910;2023-10-09T14:06:50;17.10;99.90
30308;DHT22;17114;52.314;8.910;2023-10-09T14:09:25;17.10;99.90
30308;DHT22;17114;52.314;8.910;2023-10-09T14:11:56;17.10;99.90
30308;DHT22;17114;52.314;8.910;2023-10-09T14:14:41;17.20;99.90
30308;DHT22;17114;52.314;8.910;2023-10-09T14:17:14;17.10;99.90
30308;DHT22;17114;52.314;8.910;2023-10-09T14:19:50;17.10;99.90
30308;DHT22;17114;52.314;8.910;2023-10-09T14:22:22;17.10;99.90
30308;DHT22;17114;52.314;8.910;2023-10-09T14:24:54;17.10;99.90
30308;DHT22;17114;52.314;8.910;2023-10-09T14:27:26;17.10;99.90
30308;DHT22;17114;52.314;8.910;2023-10-09T14:29:54;17.10;99.90
30308;DHT22;17114;52.314;8.910;2023-10-09T14:32:28;17.10;99.90
30308;DHT22;17114;52.314;8.910;2023-10-09T14:35:04;17.10;99.90
30308;DHT22;17114;52.314;8.910;2023-10-09T14:37:40;17.20;99.90
30308;DHT22;17114;52.314;8.910;2023-10-09T14:40:08;17.20;99.90
30308;DHT22;17114;52.314;8.910;2023-10-09T14:42:48;17.20;99.90
30308;DHT22;17114;52.314;8.910;2023-10-09T14:45:26;17.20;99.90
30308;DHT22;17114;52.314;8.910;2023-10-09T14:47:54;17.20;99.90
30308;DHT22;17114;52.314;8.910;2023-10-09T14:50:21;17.10;99.90
30308;DHT22;17114;52.314;8.910;2023-10-09T14:52:49;17.30;99.90
30308;DHT22;17114;52.314;8.910;2023-10-09T14:55:17;17.10;99.90
30308;DHT22;17114;52.314;8.910;2023-10-09T14:57:48;17.10;99.90
30308;DHT22;17114;52.314;8.910;2023-10-09T15:00:17;17.10;99.90
30308;DHT22;17114;52.314;8.910;2023-10-09T15:02:50;17.10;99.90
30308;DHT22;17114;52.314;8.910;2023-10-09T15:05:19;17.10;99.90
30308;DHT22;17114;52.314;8.910;2023-10-09T15:07:49;17.00;99.90
30308;DHT22;17114;52.314;8.910;2023-10-09T15:10:17;17.00;99.90
30308;DHT22;17114;52.314;8.910;2023-10-09T15:12:45;17.00;99.90
30308;DHT22;17114;52.314;8.910;2023-10-09T15:15:15;17.00;99.90
30308;DHT22;17114;52.314;8.910;2023-10-09T15:17:43;16.90;99.90
30308;DHT22;17114;52.314;8.910;2023-10-09T15:20:14;16.90;99.90
30308;DHT22;17114;52.314;8.910;2023-10-09T15:22:44;16.90;99.90
30308;DHT22;17114;52.314;8.910;2023-10-09T15:25:12;16.90;99.90
30308;DHT22;17114;52.314;8.910;2023-10-09T15:27:42;17.00;99.90
30308;DHT22;17114;52.314;8.910;2023-10-09T15:30:10;17.00;99.90
30308;DHT22;17114;52.314;8.910;2023-10-09T15:32:41;17.00;99.90
30308;DHT22;17114;52.314;8.910;2023-10-09T15:35:09;17.00;99.90
30308;DHT22;17114;52.314;8.910;2023-10-09T15:37:37;17.00;99.90
30308;DHT22;17114;52.314;8.910;2023-10-09T15:40:07;16.90;99.90
30308;DHT22;17114;52.314;8.910;2023-10-09T15:42:45;16.90;99.90
30308;DHT22;17114;52.314;8.910;2023-10-09T15:45:18;16.90;99.90
30308;DHT22;17114;52.314;8.910;2023-10-09T15:47:49;16.90;99.90
30308;DHT22;17114;52.314;8.910;2023-10-09T15:50:18;16.90;99.90
30308;DHT22;17114;52.314;8.910;2023-10-09T15:52:46;16.90;99.90
30308;DHT22;17114;52.314;8.910;2023-10-09T15:55:16;16.80;99.90
30308;DHT22;17114;52.314;8.910;2023-10-09T15:57:47;16.80;99.90
30308;DHT22;17114;52.314;8.910;2023-10-09T16:00:22;16.80;99.90
30308;DHT22;17114;52.314;8.910;2023-10-09T16:02:56;16.80;99.90
30308;DHT22;17114;52.314;8.910;2023-10-09T16:05:23;16.80;99.90
30308;DHT22;17114;52.314;8.910;2023-10-09T16:07:54;16.80;99.90
30308;DHT22;17114;52.314;8.910;2023-10-09T16:10:21;16.70;99.90
30308;DHT22;17114;52.314;8.910;2023-10-09T16:12:49;16.70;99.90
30308;DHT22;17114;52.314;8.910;2023-10-09T16:15:18;16.70;99.90
30308;DHT22;17114;52.314;8.910;2023-10-09T16:17:49;16.70;99.90
30308;DHT22;17114;52.314;8.910;2023-10-09T16:20:26;16.70;99.90
30308;DHT22;17114;52.314;8.910;2023-10-09T16:22:53;16.70;99.90
30308;DHT22;17114;52.314;8.910;2023-10-09T16:25:23;16.70;99.90
30308;DHT22;17114;52.314;8.910;2023-10-09T16:27:53;16.60;99.90
30308;DHT22;17114;52.314;8.910;2023-10-09T16:30:22;16.70;99.90
30308;DHT22;17114;52.314;8.910;2023-10-09T16:32:50;16.70;99.90
30308;DHT22;17114;52.314;8.910;2023-10-09T16:35:18;16.60;99.90
30308;DHT22;17114;52.314;8.910;2023-10-09T16:37:49;16.60;99.90
30308;DHT22;17114;52.314;8.910;2023-10-09T16:40:17;16.60;99.90